PWSweather.com
Personal Weather Stations
Station Observations
KCAOCEAN4
Jeffries Ranch, Oceanside, CA 92057

Jeffries RanchOceanside, CA 92057

Lat: 33.2463208, Lon: -117.25335080000002

Elevation: 207

Station Type: Davis Vantage Vue

jeffriesranchweather.com

High Low Average
Temperature 55.8°F13.2°C 38.1°F3.4°C 48.7°F9.3°C
Dew Point 42.4°F5.8°C 27.9°F-2.3°C 35.3°F1.8°C
Winds 12.1 mph 19.5 kmh Calm Calm 4.0 mph SSW6.4 kmh SSW
Wind Gusts 24.0 mph38.6 kmh -- 9.0 mph14.5 kmh
Humidity 90% 34% 62%
Pressure 30.27 in1025.1 mb 30.13 in1020.3 mb -
Precipitation 0.00 in0.0 mm - -
Hour Temp Dew Point Humidity Winds Wind Gusts Pressure Precip Precip Rate Daily Precip Total
12:06 AM 49.3°F9.6°C 43.0°F6.1°C 79% Calm Calm 7.0 mph11.3 kmh 30.18 in1022.0 mb 0.00 in0.0 mm 0.00 in0.0 mm 0.00 in0.0 mm
12:16 AM 48.7°F9.3°C 42.8°F6.0°C 80% Calm Calm 2.0 mph3.2 kmh 30.18 in1022.0 mb 0.00 in0.0 mm 0.00 in0.0 mm 0.00 in0.0 mm
12:26 AM 48.4°F9.1°C 42.4°F5.8°C 80% Calm Calm 0.9 mph1.4 kmh 30.18 in1022.0 mb 0.00 in0.0 mm 0.00 in0.0 mm 0.00 in0.0 mm
12:36 AM 48.9°F9.4°C 42.4°F5.8°C 78% 0.9 mph W1.4 kmh W 8.1 mph13.0 kmh 30.18 in1022.0 mb 0.00 in0.0 mm 0.00 in0.0 mm 0.00 in0.0 mm
12:46 AM 48.9°F9.4°C 42.4°F5.8°C 78% 0.9 mph W1.4 kmh W 2.9 mph4.7 kmh 30.18 in1022.0 mb 0.00 in0.0 mm 0.00 in0.0 mm 0.00 in0.0 mm
12:56 AM 48.9°F9.4°C 42.1°F5.6°C 77% 0.9 mph SW1.4 kmh SW 4.0 mph6.4 kmh 30.18 in1022.0 mb 0.00 in0.0 mm 0.00 in0.0 mm 0.00 in0.0 mm
01:06 AM 48.6°F9.2°C 41.7°F5.4°C 77% Calm Calm 2.9 mph4.7 kmh 30.18 in1022.0 mb 0.00 in0.0 mm 0.00 in0.0 mm 0.00 in0.0 mm
01:16 AM 48.0°F8.9°C 41.2°F5.1°C 77% Calm Calm 0.9 mph1.4 kmh 30.17 in1021.7 mb 0.00 in0.0 mm 0.00 in0.0 mm 0.00 in0.0 mm
01:26 AM 48.0°F8.9°C 41.2°F5.1°C 77% 0.9 mph SSE1.4 kmh SSE 0.9 mph1.4 kmh 30.17 in1021.7 mb 0.00 in0.0 mm 0.00 in0.0 mm 0.00 in0.0 mm
01:36 AM 47.7°F8.7°C 40.8°F4.9°C 77% Calm Calm 2.0 mph3.2 kmh 30.17 in1021.7 mb 0.00 in0.0 mm 0.00 in0.0 mm 0.00 in0.0 mm
01:46 AM 47.5°F8.6°C 41.0°F5.0°C 78% Calm Calm -- 30.17 in1021.7 mb 0.00 in0.0 mm 0.00 in0.0 mm 0.00 in0.0 mm
01:56 AM 46.8°F8.2°C 40.6°F4.8°C 79% Calm Calm -- 30.17 in1021.7 mb 0.00 in0.0 mm 0.00 in0.0 mm 0.00 in0.0 mm
02:06 AM 46.0°F7.8°C 40.3°F4.6°C 80% Calm Calm -- 30.17 in1021.7 mb 0.00 in0.0 mm 0.00 in0.0 mm 0.00 in0.0 mm
02:16 AM 46.0°F7.8°C 40.5°F4.7°C 81% Calm Calm -- 30.17 in1021.7 mb 0.00 in0.0 mm 0.00 in0.0 mm 0.00 in0.0 mm
02:26 AM 45.9°F7.7°C 40.6°F4.8°C 82% Calm Calm -- 30.17 in1021.7 mb 0.00 in0.0 mm 0.00 in0.0 mm 0.00 in0.0 mm
02:36 AM 46.0°F7.8°C 40.8°F4.9°C 82% 0.9 mph SE1.4 kmh SE 2.0 mph3.2 kmh 30.17 in1021.7 mb 0.00 in0.0 mm 0.00 in0.0 mm 0.00 in0.0 mm
02:46 AM 46.2°F7.9°C 41.0°F5.0°C 82% 0.9 mph SE1.4 kmh SE 2.0 mph3.2 kmh 30.16 in1021.3 mb 0.00 in0.0 mm 0.00 in0.0 mm 0.00 in0.0 mm
02:56 AM 46.2°F7.9°C 41.0°F5.0°C 82% 0.9 mph SE1.4 kmh SE 2.0 mph3.2 kmh 30.16 in1021.3 mb 0.00 in0.0 mm 0.00 in0.0 mm 0.00 in0.0 mm
03:06 AM 47.5°F8.6°C 42.3°F5.7°C 82% 2.0 mph SE3.2 kmh SE 4.9 mph7.9 kmh 30.16 in1021.3 mb 0.00 in0.0 mm 0.00 in0.0 mm 0.00 in0.0 mm
03:16 AM 47.7°F8.7°C 41.5°F5.3°C 79% 2.0 mph ESE3.2 kmh ESE 4.0 mph6.4 kmh 30.16 in1021.3 mb 0.00 in0.0 mm 0.00 in0.0 mm 0.00 in0.0 mm
03:26 AM 46.6°F8.1°C 41.0°F5.0°C 81% Calm Calm 2.0 mph3.2 kmh 30.16 in1021.3 mb 0.00 in0.0 mm 0.00 in0.0 mm 0.00 in0.0 mm
03:36 AM 46.2°F7.9°C 40.6°F4.8°C 81% Calm Calm 2.0 mph3.2 kmh 30.16 in1021.3 mb 0.00 in0.0 mm 0.00 in0.0 mm 0.00 in0.0 mm
03:46 AM 46.6°F8.1°C 41.4°F5.2°C 82% Calm Calm 0.9 mph1.4 kmh 30.15 in1021.0 mb 0.00 in0.0 mm 0.00 in0.0 mm 0.00 in0.0 mm
03:56 AM 45.9°F7.7°C 40.3°F4.6°C 81% Calm Calm 0.9 mph1.4 kmh 30.15 in1021.0 mb 0.00 in0.0 mm 0.00 in0.0 mm 0.00 in0.0 mm
04:06 AM 45.7°F7.6°C 41.2°F5.1°C 84% Calm Calm 0.9 mph1.4 kmh 30.15 in1021.0 mb 0.00 in0.0 mm 0.00 in0.0 mm 0.00 in0.0 mm
04:16 AM 46.0°F7.8°C 41.5°F5.3°C 84% Calm Calm 0.9 mph1.4 kmh 30.15 in1021.0 mb 0.00 in0.0 mm 0.00 in0.0 mm 0.00 in0.0 mm
04:26 AM 46.2°F7.9°C 41.9°F5.5°C 85% Calm Calm 2.0 mph3.2 kmh 30.15 in1021.0 mb 0.00 in0.0 mm 0.00 in0.0 mm 0.00 in0.0 mm
04:36 AM 46.8°F8.2°C 42.4°F5.8°C 85% Calm Calm 0.9 mph1.4 kmh 30.15 in1021.0 mb 0.00 in0.0 mm 0.00 in0.0 mm 0.00 in0.0 mm
04:46 AM 45.1°F7.3°C 40.8°F4.9°C 85% 0.9 mph SE1.4 kmh SE 3.0 mph4.8 kmh 30.15 in1021.0 mb 0.00 in0.0 mm 0.00 in0.0 mm 0.00 in0.0 mm
04:56 AM 45.0°F7.2°C 41.0°F5.0°C 86% Calm Calm 2.0 mph3.2 kmh 30.15 in1021.0 mb 0.00 in0.0 mm 0.00 in0.0 mm 0.00 in0.0 mm
05:06 AM 44.2°F6.8°C 40.6°F4.8°C 87% 0.9 mph NE1.4 kmh NE 3.0 mph4.8 kmh 30.15 in1021.0 mb 0.00 in0.0 mm 0.00 in0.0 mm 0.00 in0.0 mm
05:16 AM 44.2°F6.8°C 41.0°F5.0°C 88% 0.9 mph NE1.4 kmh NE 2.9 mph4.7 kmh 30.15 in1021.0 mb 0.00 in0.0 mm 0.00 in0.0 mm 0.00 in0.0 mm
05:26 AM 44.1°F6.7°C 40.8°F4.9°C 88% 0.9 mph ENE1.4 kmh ENE 2.0 mph3.2 kmh 30.15 in1021.0 mb 0.00 in0.0 mm 0.00 in0.0 mm 0.00 in0.0 mm
05:36 AM 43.9°F6.6°C 40.6°F4.8°C 88% 0.9 mph NE1.4 kmh NE 2.0 mph3.2 kmh 30.15 in1021.0 mb 0.00 in0.0 mm 0.00 in0.0 mm 0.00 in0.0 mm
05:46 AM 43.2°F6.2°C 39.9°F4.4°C 88% 2.0 mph NE3.2 kmh NE 5.0 mph8.0 kmh 30.15 in1021.0 mb 0.00 in0.0 mm 0.00 in0.0 mm 0.00 in0.0 mm
05:56 AM 43.0°F6.1°C 39.9°F4.4°C 89% Calm Calm 2.9 mph4.7 kmh 30.15 in1021.0 mb 0.00 in0.0 mm 0.00 in0.0 mm 0.00 in0.0 mm
06:06 AM 43.3°F6.3°C 40.3°F4.6°C 89% Calm Calm 2.0 mph3.2 kmh 30.15 in1021.0 mb 0.00 in0.0 mm 0.00 in0.0 mm 0.00 in0.0 mm
06:16 AM 43.3°F6.3°C 40.3°F4.6°C 89% 0.9 mph ESE1.4 kmh ESE 3.0 mph4.8 kmh 30.15 in1021.0 mb 0.00 in0.0 mm 0.00 in0.0 mm 0.00 in0.0 mm
06:26 AM 43.9°F6.6°C 41.2°F5.1°C 90% 0.9 mph SE1.4 kmh SE 2.0 mph3.2 kmh 30.15 in1021.0 mb 0.00 in0.0 mm 0.00 in0.0 mm 0.00 in0.0 mm
06:36 AM 43.9°F6.6°C 40.6°F4.8°C 88% 0.9 mph NE1.4 kmh NE 3.0 mph4.8 kmh 30.16 in1021.3 mb 0.00 in0.0 mm 0.00 in0.0 mm 0.00 in0.0 mm
06:46 AM 43.3°F6.3°C 40.3°F4.6°C 89% Calm Calm 2.0 mph3.2 kmh 30.16 in1021.3 mb 0.00 in0.0 mm 0.00 in0.0 mm 0.00 in0.0 mm
06:56 AM 45.0°F7.2°C 41.0°F5.0°C 86% 0.9 mph W1.4 kmh W 4.0 mph6.4 kmh 30.16 in1021.3 mb 0.00 in0.0 mm 0.00 in0.0 mm 0.00 in0.0 mm
07:07 AM 45.7°F7.6°C 41.2°F5.1°C 84% 0.9 mph NE1.4 kmh NE 4.0 mph6.4 kmh 30.16 in1021.3 mb 0.00 in0.0 mm 0.00 in0.0 mm 0.00 in0.0 mm
07:17 AM 46.8°F8.2°C 39.9°F4.4°C 77% 2.9 mph W4.7 kmh W 15.0 mph24.1 kmh 30.16 in1021.3 mb 0.00 in0.0 mm 0.00 in0.0 mm 0.00 in0.0 mm
07:27 AM 47.3°F8.5°C 39.7°F4.3°C 75% 0.9 mph W1.4 kmh W 6.0 mph9.7 kmh 30.17 in1021.7 mb 0.00 in0.0 mm 0.00 in0.0 mm 0.00 in0.0 mm
07:37 AM 49.3°F9.6°C 38.8°F3.8°C 67% 6.0 mph WNW9.7 kmh WNW 12.1 mph19.5 kmh 30.17 in1021.7 mb 0.00 in0.0 mm 0.00 in0.0 mm 0.00 in0.0 mm
07:47 AM 49.6°F9.8°C 37.2°F2.9°C 62% 6.9 mph WNW11.1 kmh WNW 16.1 mph25.9 kmh 30.17 in1021.7 mb 0.00 in0.0 mm 0.00 in0.0 mm 0.00 in0.0 mm
07:57 AM 49.8°F9.9°C 36.1°F2.3°C 59% 4.9 mph NW7.9 kmh NW 11.0 mph17.7 kmh 30.18 in1022.0 mb 0.00 in0.0 mm 0.00 in0.0 mm 0.00 in0.0 mm
08:07 AM 49.8°F9.9°C 36.5°F2.5°C 60% 4.0 mph NW6.4 kmh NW 9.0 mph14.5 kmh 30.18 in1022.0 mb 0.00 in0.0 mm 0.00 in0.0 mm 0.00 in0.0 mm
08:17 AM 49.8°F9.9°C 38.1°F3.4°C 64% 4.0 mph SE6.4 kmh SE 8.1 mph13.0 kmh 30.18 in1022.0 mb 0.00 in0.0 mm 0.00 in0.0 mm 0.00 in0.0 mm
08:27 AM 49.3°F9.6°C 39.2°F4.0°C 68% 2.0 mph NW3.2 kmh NW 6.9 mph11.1 kmh 30.18 in1022.0 mb 0.00 in0.0 mm 0.00 in0.0 mm 0.00 in0.0 mm
08:37 AM 50.0°F10.0°C 37.9°F3.3°C 63% 6.0 mph W9.7 kmh W 13.0 mph20.9 kmh 30.19 in1022.4 mb 0.00 in0.0 mm 0.00 in0.0 mm 0.00 in0.0 mm
08:47 AM 50.7°F10.4°C 35.6°F2.0°C 56% 8.1 mph NNW13.0 kmh NNW 14.1 mph22.7 kmh 30.18 in1022.0 mb 0.00 in0.0 mm 0.00 in0.0 mm 0.00 in0.0 mm
08:57 AM 51.3°F10.7°C 35.6°F2.0°C 55% 8.1 mph NW13.0 kmh NW 17.9 mph28.8 kmh 30.18 in1022.0 mb 0.00 in0.0 mm 0.00 in0.0 mm 0.00 in0.0 mm
09:07 AM 51.1°F10.6°C 35.1°F1.7°C 54% 8.9 mph W14.3 kmh W 17.9 mph28.8 kmh 30.19 in1022.4 mb 0.00 in0.0 mm 0.00 in0.0 mm 0.00 in0.0 mm
09:17 AM 51.4°F10.8°C 35.4°F1.9°C 54% 8.9 mph WSW14.3 kmh WSW 18.0 mph29.0 kmh 30.18 in1022.0 mb 0.00 in0.0 mm 0.00 in0.0 mm 0.00 in0.0 mm
09:27 AM 51.4°F10.8°C 35.8°F2.1°C 55% 11.0 mph W17.7 kmh W 17.9 mph28.8 kmh 30.18 in1022.0 mb 0.00 in0.0 mm 0.00 in0.0 mm 0.00 in0.0 mm
09:37 AM 51.8°F11.0°C 36.1°F2.3°C 55% 11.0 mph NW17.7 kmh NW 24.0 mph38.6 kmh 30.18 in1022.0 mb 0.00 in0.0 mm 0.00 in0.0 mm 0.00 in0.0 mm
09:47 AM 51.6°F10.9°C 36.0°F2.2°C 55% 12.1 mph WNW19.5 kmh WNW 19.9 mph32.0 kmh 30.18 in1022.0 mb 0.00 in0.0 mm 0.00 in0.0 mm 0.00 in0.0 mm
09:57 AM 52.2°F11.2°C 35.6°F2.0°C 53% 11.0 mph NW17.7 kmh NW 17.9 mph28.8 kmh 30.18 in1022.0 mb 0.00 in0.0 mm 0.00 in0.0 mm 0.00 in0.0 mm
10:07 AM 51.6°F10.9°C 35.6°F2.0°C 54% 10.1 mph W16.3 kmh W 21.0 mph33.8 kmh 30.17 in1021.7 mb 0.00 in0.0 mm 0.00 in0.0 mm 0.00 in0.0 mm
10:17 AM 52.3°F11.3°C 35.8°F2.1°C 53% 12.1 mph W19.5 kmh W 21.0 mph33.8 kmh 30.18 in1022.0 mb 0.00 in0.0 mm 0.00 in0.0 mm 0.00 in0.0 mm
10:27 AM 52.5°F11.4°C 34.3°F1.3°C 50% 11.0 mph NW17.7 kmh NW 22.0 mph35.4 kmh 30.18 in1022.0 mb 0.00 in0.0 mm 0.00 in0.0 mm 0.00 in0.0 mm
10:37 AM 52.9°F11.6°C 35.2°F1.8°C 51% 10.1 mph NW16.3 kmh NW 19.9 mph32.0 kmh 30.18 in1022.0 mb 0.00 in0.0 mm 0.00 in0.0 mm 0.00 in0.0 mm
10:47 AM 52.5°F11.4°C 34.3°F1.3°C 50% 11.0 mph NW17.7 kmh NW 24.0 mph38.6 kmh 30.18 in1022.0 mb 0.00 in0.0 mm 0.00 in0.0 mm 0.00 in0.0 mm
10:57 AM 53.1°F11.7°C 32.4°F0.2°C 45% 8.1 mph NW13.0 kmh NW 20.0 mph32.2 kmh 30.18 in1022.0 mb 0.00 in0.0 mm 0.00 in0.0 mm 0.00 in0.0 mm
11:07 AM 52.9°F11.6°C 32.7°F0.4°C 46% 10.1 mph WNW16.3 kmh WNW 16.1 mph25.9 kmh 30.19 in1022.4 mb 0.00 in0.0 mm 0.00 in0.0 mm 0.00 in0.0 mm
11:17 AM 52.7°F11.5°C 32.0°F0.0°C 45% 8.9 mph W14.3 kmh W 16.1 mph25.9 kmh 30.19 in1022.4 mb 0.00 in0.0 mm 0.00 in0.0 mm 0.00 in0.0 mm
11:27 AM 53.2°F11.8°C 32.4°F0.2°C 45% 8.1 mph WSW13.0 kmh WSW 17.0 mph27.4 kmh 30.18 in1022.0 mb 0.00 in0.0 mm 0.00 in0.0 mm 0.00 in0.0 mm
11:37 AM 53.6°F12.0°C 31.6°F-0.2°C 43% 8.1 mph NW13.0 kmh NW 13.0 mph20.9 kmh 30.18 in1022.0 mb 0.00 in0.0 mm 0.00 in0.0 mm 0.00 in0.0 mm
11:47 AM 54.1°F12.3°C 30.9°F-0.6°C 41% 6.0 mph WSW9.7 kmh WSW 11.0 mph17.7 kmh 30.18 in1022.0 mb 0.00 in0.0 mm 0.00 in0.0 mm 0.00 in0.0 mm
11:57 AM 54.7°F12.6°C 30.9°F-0.6°C 40% 6.0 mph WSW9.7 kmh WSW 11.0 mph17.7 kmh 30.17 in1021.7 mb 0.00 in0.0 mm 0.00 in0.0 mm 0.00 in0.0 mm
12:07 PM 55.4°F13.0°C 28.9°F-1.7°C 36% 6.0 mph NW9.7 kmh NW 16.1 mph25.9 kmh 30.17 in1021.7 mb 0.00 in0.0 mm 0.00 in0.0 mm 0.00 in0.0 mm
12:17 PM 55.6°F13.1°C 29.7°F-1.3°C 37% 6.9 mph NW11.1 kmh NW 15.0 mph24.1 kmh 30.16 in1021.3 mb 0.00 in0.0 mm 0.00 in0.0 mm 0.00 in0.0 mm
12:27 PM 54.9°F12.7°C 28.4°F-2.0°C 36% 11.0 mph WSW17.7 kmh WSW 17.9 mph28.8 kmh 30.16 in1021.3 mb 0.00 in0.0 mm 0.00 in0.0 mm 0.00 in0.0 mm
12:37 PM 55.0°F12.8°C 29.3°F-1.5°C 37% 11.0 mph SW17.7 kmh SW 21.0 mph33.8 kmh 30.16 in1021.3 mb 0.00 in0.0 mm 0.00 in0.0 mm 0.00 in0.0 mm
12:47 PM 55.2°F12.9°C 28.0°F-2.2°C 35% 8.9 mph NW14.3 kmh NW 19.0 mph30.6 kmh 30.17 in1021.7 mb 0.00 in0.0 mm 0.00 in0.0 mm 0.00 in0.0 mm
12:57 PM 55.8°F13.2°C 27.9°F-2.3°C 34% 10.1 mph W16.3 kmh W 17.0 mph27.4 kmh 30.16 in1021.3 mb 0.00 in0.0 mm 0.00 in0.0 mm 0.00 in0.0 mm
01:07 PM 55.0°F12.8°C 28.6°F-1.9°C 36% 11.0 mph WNW17.7 kmh WNW 21.0 mph33.8 kmh 30.16 in1021.3 mb 0.00 in0.0 mm 0.00 in0.0 mm 0.00 in0.0 mm
01:17 PM 55.0°F12.8°C 28.6°F-1.9°C 36% 11.0 mph W17.7 kmh W 22.0 mph35.4 kmh 30.16 in1021.3 mb 0.00 in0.0 mm 0.00 in0.0 mm 0.00 in0.0 mm
01:27 PM 55.0°F12.8°C 29.3°F-1.5°C 37% 12.1 mph NW19.5 kmh NW 21.0 mph33.8 kmh 30.15 in1021.0 mb 0.00 in0.0 mm 0.00 in0.0 mm 0.00 in0.0 mm
01:37 PM 55.6°F13.1°C 29.1°F-1.6°C 36% 11.0 mph W17.7 kmh W 20.0 mph32.2 kmh 30.15 in1021.0 mb 0.00 in0.0 mm 0.00 in0.0 mm 0.00 in0.0 mm
01:47 PM 55.2°F12.9°C 30.0°F-1.1°C 38% 11.0 mph WSW17.7 kmh WSW 19.9 mph32.0 kmh 30.14 in1020.7 mb 0.00 in0.0 mm 0.00 in0.0 mm 0.00 in0.0 mm
01:57 PM 54.9°F12.7°C 30.4°F-0.9°C 39% 10.1 mph W16.3 kmh W 17.9 mph28.8 kmh 30.14 in1020.7 mb 0.00 in0.0 mm 0.00 in0.0 mm 0.00 in0.0 mm
02:07 PM 55.2°F12.9°C 30.7°F-0.7°C 39% 11.0 mph W17.7 kmh W 21.0 mph33.8 kmh 30.14 in1020.7 mb 0.00 in0.0 mm 0.00 in0.0 mm 0.00 in0.0 mm
02:17 PM 55.0°F12.8°C 31.1°F-0.5°C 40% 11.0 mph WNW17.7 kmh WNW 20.0 mph32.2 kmh 30.14 in1020.7 mb 0.00 in0.0 mm 0.00 in0.0 mm 0.00 in0.0 mm
02:27 PM 54.9°F12.7°C 31.6°F-0.2°C 41% 11.0 mph WNW17.7 kmh WNW 19.9 mph32.0 kmh 30.14 in1020.7 mb 0.00 in0.0 mm 0.00 in0.0 mm 0.00 in0.0 mm
02:37 PM 54.5°F12.5°C 31.8°F-0.1°C 42% 11.0 mph WNW17.7 kmh WNW 24.0 mph38.6 kmh 30.14 in1020.7 mb 0.00 in0.0 mm 0.00 in0.0 mm 0.00 in0.0 mm
02:47 PM 55.2°F12.9°C 32.5°F0.3°C 42% 10.1 mph WNW16.3 kmh WNW 19.0 mph30.6 kmh 30.13 in1020.3 mb 0.00 in0.0 mm 0.00 in0.0 mm 0.00 in0.0 mm
02:57 PM 54.9°F12.7°C 32.2°F0.1°C 42% 10.1 mph NW16.3 kmh NW 19.0 mph30.6 kmh 30.13 in1020.3 mb 0.00 in0.0 mm 0.00 in0.0 mm 0.00 in0.0 mm
03:07 PM 54.7°F12.6°C 33.8°F1.0°C 45% 10.1 mph WSW16.3 kmh WSW 19.9 mph32.0 kmh 30.14 in1020.7 mb 0.00 in0.0 mm 0.00 in0.0 mm 0.00 in0.0 mm
03:17 PM 54.7°F12.6°C 33.3°F0.7°C 44% 11.0 mph WSW17.7 kmh WSW 21.0 mph33.8 kmh 30.14 in1020.7 mb 0.00 in0.0 mm 0.00 in0.0 mm 0.00 in0.0 mm
03:27 PM 55.2°F12.9°C 34.2°F1.2°C 45% 8.9 mph W14.3 kmh W 17.0 mph27.4 kmh 30.13 in1020.3 mb 0.00 in0.0 mm 0.00 in0.0 mm 0.00 in0.0 mm
03:37 PM 55.2°F12.9°C 33.6°F0.9°C 44% 8.1 mph WNW13.0 kmh WNW 16.1 mph25.9 kmh 30.13 in1020.3 mb 0.00 in0.0 mm 0.00 in0.0 mm 0.00 in0.0 mm
03:47 PM 54.7°F12.6°C 32.0°F0.0°C 42% 11.0 mph WNW17.7 kmh WNW 19.0 mph30.6 kmh 30.13 in1020.3 mb 0.00 in0.0 mm 0.00 in0.0 mm 0.00 in0.0 mm
03:57 PM 54.7°F12.6°C 32.0°F0.0°C 42% 11.0 mph W17.7 kmh W 17.9 mph28.8 kmh 30.13 in1020.3 mb 0.00 in0.0 mm 0.00 in0.0 mm 0.00 in0.0 mm
04:07 PM 54.7°F12.6°C 32.5°F0.3°C 43% 10.1 mph WNW16.3 kmh WNW 19.0 mph30.6 kmh 30.13 in1020.3 mb 0.00 in0.0 mm 0.00 in0.0 mm 0.00 in0.0 mm
04:17 PM 54.9°F12.7°C 32.7°F0.4°C 43% 10.1 mph NW16.3 kmh NW 17.9 mph28.8 kmh 30.13 in1020.3 mb 0.00 in0.0 mm 0.00 in0.0 mm 0.00 in0.0 mm
04:27 PM 55.0°F12.8°C 33.4°F0.8°C 44% 8.1 mph WSW13.0 kmh WSW 17.9 mph28.8 kmh 30.14 in1020.7 mb 0.00 in0.0 mm 0.00 in0.0 mm 0.00 in0.0 mm
04:37 PM 55.0°F12.8°C 34.7°F1.5°C 46% 8.1 mph WNW13.0 kmh WNW 15.0 mph24.1 kmh 30.14 in1020.7 mb 0.00 in0.0 mm 0.00 in0.0 mm 0.00 in0.0 mm
04:47 PM 54.7°F12.6°C 33.8°F1.0°C 45% 10.1 mph NW16.3 kmh NW 23.0 mph37.0 kmh 30.14 in1020.7 mb 0.00 in0.0 mm 0.00 in0.0 mm 0.00 in0.0 mm
04:57 PM 54.5°F12.5°C 34.7°F1.5°C 47% 8.9 mph WSW14.3 kmh WSW 17.0 mph27.4 kmh 30.14 in1020.7 mb 0.00 in0.0 mm 0.00 in0.0 mm 0.00 in0.0 mm
05:07 PM 54.3°F12.4°C 35.1°F1.7°C 48% 11.0 mph W17.7 kmh W 19.0 mph30.6 kmh 30.14 in1020.7 mb 0.00 in0.0 mm 0.00 in0.0 mm 0.00 in0.0 mm
05:17 PM 54.7°F12.6°C 34.9°F1.6°C 47% 8.9 mph WNW14.3 kmh WNW 16.1 mph25.9 kmh 30.14 in1020.7 mb 0.00 in0.0 mm 0.00 in0.0 mm 0.00 in0.0 mm
05:27 PM 54.7°F12.6°C 34.9°F1.6°C 47% 6.9 mph W11.1 kmh W 15.0 mph24.1 kmh 30.14 in1020.7 mb 0.00 in0.0 mm 0.00 in0.0 mm 0.00 in0.0 mm
05:37 PM 54.9°F12.7°C 35.6°F2.0°C 48% 6.0 mph SW9.7 kmh SW 12.1 mph19.5 kmh 30.14 in1020.7 mb 0.00 in0.0 mm 0.00 in0.0 mm 0.00 in0.0 mm
05:47 PM 54.3°F12.4°C 36.1°F2.3°C 50% 6.9 mph SW11.1 kmh SW 17.0 mph27.4 kmh 30.14 in1020.7 mb 0.00 in0.0 mm 0.00 in0.0 mm 0.00 in0.0 mm
05:57 PM 54.3°F12.4°C 34.5°F1.4°C 47% 6.9 mph W11.1 kmh W 12.1 mph19.5 kmh 30.15 in1021.0 mb 0.00 in0.0 mm 0.00 in0.0 mm 0.00 in0.0 mm
06:07 PM 54.3°F12.4°C 35.6°F2.0°C 49% 4.9 mph W7.9 kmh W 11.0 mph17.7 kmh 30.15 in1021.0 mb 0.00 in0.0 mm 0.00 in0.0 mm 0.00 in0.0 mm
06:17 PM 54.1°F12.3°C 34.9°F1.6°C 48% 4.9 mph WNW7.9 kmh WNW 12.1 mph19.5 kmh 30.16 in1021.3 mb 0.00 in0.0 mm 0.00 in0.0 mm 0.00 in0.0 mm
06:27 PM 53.8°F12.1°C 35.1°F1.7°C 49% 4.9 mph W7.9 kmh W 12.1 mph19.5 kmh 30.16 in1021.3 mb 0.00 in0.0 mm 0.00 in0.0 mm 0.00 in0.0 mm
06:37 PM 53.1°F11.7°C 34.9°F1.6°C 50% 4.0 mph WSW6.4 kmh WSW 9.0 mph14.5 kmh 30.16 in1021.3 mb 0.00 in0.0 mm 0.00 in0.0 mm 0.00 in0.0 mm
06:47 PM 52.3°F11.3°C 34.7°F1.5°C 51% 2.9 mph W4.7 kmh W 6.9 mph11.1 kmh 30.16 in1021.3 mb 0.00 in0.0 mm 0.00 in0.0 mm 0.00 in0.0 mm
06:57 PM 52.0°F11.1°C 34.9°F1.6°C 52% Calm Calm 2.9 mph4.7 kmh 30.16 in1021.3 mb 0.00 in0.0 mm 0.00 in0.0 mm 0.00 in0.0 mm
07:07 PM 51.1°F10.6°C 35.1°F1.7°C 54% Calm Calm 0.9 mph1.4 kmh 30.17 in1021.7 mb 0.00 in0.0 mm 0.00 in0.0 mm 0.00 in0.0 mm
07:17 PM 50.4°F10.2°C 34.9°F1.6°C 55% Calm Calm 2.0 mph3.2 kmh 30.17 in1021.7 mb 0.00 in0.0 mm 0.00 in0.0 mm 0.00 in0.0 mm
07:27 PM 49.5°F9.7°C 34.3°F1.3°C 56% Calm Calm 2.0 mph3.2 kmh 30.17 in1021.7 mb 0.00 in0.0 mm 0.00 in0.0 mm 0.00 in0.0 mm
07:37 PM 49.5°F9.7°C 34.0°F1.1°C 55% 0.9 mph WSW1.4 kmh WSW 2.0 mph3.2 kmh 30.18 in1022.0 mb 0.00 in0.0 mm 0.00 in0.0 mm 0.00 in0.0 mm
07:47 PM 48.7°F9.3°C 33.8°F1.0°C 56% Calm Calm 0.9 mph1.4 kmh 30.18 in1022.0 mb 0.00 in0.0 mm 0.00 in0.0 mm 0.00 in0.0 mm
07:57 PM 48.0°F8.9°C 34.0°F1.1°C 58% Calm Calm 0.9 mph1.4 kmh 30.19 in1022.4 mb 0.00 in0.0 mm 0.00 in0.0 mm 0.00 in0.0 mm
08:07 PM 46.9°F8.3°C 33.8°F1.0°C 60% 0.9 mph SE1.4 kmh SE 2.0 mph3.2 kmh 30.19 in1022.4 mb 0.00 in0.0 mm 0.00 in0.0 mm 0.00 in0.0 mm
08:17 PM 46.4°F8.0°C 34.2°F1.2°C 62% 0.9 mph ESE1.4 kmh ESE 2.0 mph3.2 kmh 30.19 in1022.4 mb 0.00 in0.0 mm 0.00 in0.0 mm 0.00 in0.0 mm
08:27 PM 45.9°F7.7°C 33.6°F0.9°C 62% 0.9 mph SE1.4 kmh SE 2.0 mph3.2 kmh 30.19 in1022.4 mb 0.00 in0.0 mm 0.00 in0.0 mm 0.00 in0.0 mm
08:37 PM 45.7°F7.6°C 33.8°F1.0°C 63% 0.9 mph SE1.4 kmh SE 2.0 mph3.2 kmh 30.19 in1022.4 mb 0.00 in0.0 mm 0.00 in0.0 mm 0.00 in0.0 mm
08:47 PM 45.0°F7.2°C 33.4°F0.8°C 64% 0.9 mph SE1.4 kmh SE 2.0 mph3.2 kmh 30.20 in1022.7 mb 0.00 in0.0 mm 0.00 in0.0 mm 0.00 in0.0 mm
08:57 PM 44.8°F7.1°C 33.8°F1.0°C 65% 0.9 mph SE1.4 kmh SE 3.0 mph4.8 kmh 30.21 in1023.0 mb 0.00 in0.0 mm 0.00 in0.0 mm 0.00 in0.0 mm
09:07 PM 44.2°F6.8°C 33.3°F0.7°C 65% 0.9 mph SE1.4 kmh SE 2.9 mph4.7 kmh 30.21 in1023.0 mb 0.00 in0.0 mm 0.00 in0.0 mm 0.00 in0.0 mm
09:17 PM 43.9°F6.6°C 33.3°F0.7°C 66% Calm Calm 0.9 mph1.4 kmh 30.21 in1023.0 mb 0.00 in0.0 mm 0.00 in0.0 mm 0.00 in0.0 mm
09:27 PM 43.7°F6.5°C 33.1°F0.6°C 66% Calm Calm 0.9 mph1.4 kmh 30.22 in1023.4 mb 0.00 in0.0 mm 0.00 in0.0 mm 0.00 in0.0 mm
09:37 PM 43.2°F6.2°C 32.5°F0.3°C 66% Calm Calm 0.9 mph1.4 kmh 30.22 in1023.4 mb 0.00 in0.0 mm 0.00 in0.0 mm 0.00 in0.0 mm
09:47 PM 42.4°F5.8°C 32.2°F0.1°C 67% Calm Calm 2.0 mph3.2 kmh 30.22 in1023.4 mb 0.00 in0.0 mm 0.00 in0.0 mm 0.00 in0.0 mm
09:57 PM 41.9°F5.5°C 33.3°F0.7°C 71% Calm Calm 2.0 mph3.2 kmh 30.22 in1023.4 mb 0.00 in0.0 mm 0.00 in0.0 mm 0.00 in0.0 mm
10:07 PM 41.7°F5.4°C 32.7°F0.4°C 70% 2.0 mph ENE3.2 kmh ENE 4.0 mph6.4 kmh 30.22 in1023.4 mb 0.00 in0.0 mm 0.00 in0.0 mm 0.00 in0.0 mm
10:17 PM 41.5°F5.3°C 32.5°F0.3°C 70% Calm Calm 2.9 mph4.7 kmh 30.23 in1023.7 mb 0.00 in0.0 mm 0.00 in0.0 mm 0.00 in0.0 mm
10:27 PM 40.8°F4.9°C 32.2°F0.1°C 71% Calm Calm 2.0 mph3.2 kmh 30.23 in1023.7 mb 0.00 in0.0 mm 0.00 in0.0 mm 0.00 in0.0 mm
10:37 PM 40.6°F4.8°C 32.4°F0.2°C 72% 0.9 mph ENE1.4 kmh ENE 3.0 mph4.8 kmh 30.23 in1023.7 mb 0.00 in0.0 mm 0.00 in0.0 mm 0.00 in0.0 mm
10:47 PM 40.5°F4.7°C 32.2°F0.1°C 72% Calm Calm 2.0 mph3.2 kmh 30.24 in1024.0 mb 0.00 in0.0 mm 0.00 in0.0 mm 0.00 in0.0 mm
10:57 PM 40.6°F4.8°C 32.7°F0.4°C 73% 0.9 mph ENE1.4 kmh ENE 2.9 mph4.7 kmh 30.24 in1024.0 mb 0.00 in0.0 mm 0.00 in0.0 mm 0.00 in0.0 mm
11:07 PM 39.7°F4.3°C 31.8°F-0.1°C 73% Calm Calm 0.9 mph1.4 kmh 30.24 in1024.0 mb 0.00 in0.0 mm 0.00 in0.0 mm 0.00 in0.0 mm
11:17 PM 38.8°F3.8°C 31.6°F-0.2°C 75% Calm Calm 0.9 mph1.4 kmh 30.24 in1024.0 mb 0.00 in0.0 mm 0.00 in0.0 mm 0.00 in0.0 mm
11:27 PM 38.3°F3.5°C 31.6°F-0.2°C 77% Calm Calm 0.9 mph1.4 kmh 30.24 in1024.0 mb 0.00 in0.0 mm 0.00 in0.0 mm 0.00 in0.0 mm
11:37 PM 38.5°F3.6°C 31.8°F-0.1°C 77% Calm Calm 0.9 mph1.4 kmh 30.25 in1024.4 mb 0.00 in0.0 mm 0.00 in0.0 mm 0.00 in0.0 mm
11:47 PM 38.7°F3.7°C 32.0°F0.0°C 77% Calm Calm 2.0 mph3.2 kmh 30.25 in1024.4 mb 0.00 in0.0 mm 0.00 in0.0 mm 0.00 in0.0 mm
11:57 PM 39.0°F3.9°C 32.4°F0.2°C 77% 0.9 mph NE1.4 kmh NE 4.0 mph6.4 kmh 30.25 in1024.4 mb 0.00 in0.0 mm 0.00 in0.0 mm 0.00 in0.0 mm